sensor_id;sensor_type;location;lat;lon;timestamp;pressure;altitude;pressure_sealevel;temperature;humidity
23589;BME280;11972;48.078;11.876;2022-08-21T00:01:59;95482.59;;;15.77;100.00
23589;BME280;11972;48.078;11.876;2022-08-21T00:06:00;95477.72;;;15.74;100.00
23589;BME280;11972;48.078;11.876;2022-08-21T00:10:00;95479.97;;;15.71;100.00
23589;BME280;11972;48.078;11.876;2022-08-21T00:14:01;95469.97;;;15.66;100.00
23589;BME280;11972;48.078;11.876;2022-08-21T00:18:03;95464.44;;;15.61;100.00
23589;BME280;11972;48.078;11.876;2022-08-21T00:22:04;95459.97;;;15.55;100.00
23589;BME280;11972;48.078;11.876;2022-08-21T00:26:05;95460.84;;;15.49;100.00
23589;BME280;11972;48.078;11.876;2022-08-21T00:30:06;95462.06;;;15.46;100.00
23589;BME280;11972;48.078;11.876;2022-08-21T00:34:07;95464.53;;;15.48;100.00
23589;BME280;11972;48.078;11.876;2022-08-21T00:38:09;95467.38;;;15.53;100.00
23589;BME280;11972;48.078;11.876;2022-08-21T00:42:10;95462.06;;;15.53;100.00
23589;BME280;11972;48.078;11.876;2022-08-21T00:46:15;95459.22;;;15.48;100.00
23589;BME280;11972;48.078;11.876;2022-08-21T00:50:15;95466.84;;;15.37;100.00
23589;BME280;11972;48.078;11.876;2022-08-21T00:54:17;95468.72;;;15.30;100.00
23589;BME280;11972;48.078;11.876;2022-08-21T00:58:18;95463.22;;;15.25;100.00
23589;BME280;11972;48.078;11.876;2022-08-21T01:02:19;95464.25;;;15.24;100.00
23589;BME280;11972;48.078;11.876;2022-08-21T01:06:20;95458.75;;;15.19;100.00
23589;BME280;11972;48.078;11.876;2022-08-21T01:10:21;95453.25;;;15.14;100.00
23589;BME280;11972;48.078;11.876;2022-08-21T01:14:21;95458.22;;;15.04;100.00
23589;BME280;11972;48.078;11.876;2022-08-21T01:18:23;95460.69;;;14.99;100.00
23589;BME280;11972;48.078;11.876;2022-08-21T01:22:23;95446.78;;;14.97;100.00
23589;BME280;11972;48.078;11.876;2022-08-21T01:26:27;95444.97;;;14.91;100.00
23589;BME280;11972;48.078;11.876;2022-08-21T01:30:28;95441.50;;;14.90;100.00
23589;BME280;11972;48.078;11.876;2022-08-21T01:34:29;95441.28;;;14.85;100.00
23589;BME280;11972;48.078;11.876;2022-08-21T01:38:29;95444.19;;;14.83;100.00
23589;BME280;11972;48.078;11.876;2022-08-21T01:42:29;95439.50;;;14.79;100.00
23589;BME280;11972;48.078;11.876;2022-08-21T01:46:30;95444.81;;;14.79;100.00
23589;BME280;11972;48.078;11.876;2022-08-21T01:50:31;95449.50;;;14.77;100.00
23589;BME280;11972;48.078;11.876;2022-08-21T01:54:31;95450.53;;;14.82;100.00
23589;BME280;11972;48.078;11.876;2022-08-21T01:58:32;95443.59;;;14.81;100.00
23589;BME280;11972;48.078;11.876;2022-08-21T02:02:33;95446.66;;;14.78;100.00
23589;BME280;11972;48.078;11.876;2022-08-21T02:06:34;95453.19;;;14.76;100.00
23589;BME280;11972;48.078;11.876;2022-08-21T02:10:34;95440.13;;;14.74;100.00
23589;BME280;11972;48.078;11.876;2022-08-21T02:14:35;95435.41;;;14.76;100.00
23589;BME280;11972;48.078;11.876;2022-08-21T02:18:36;95440.72;;;14.76;100.00
23589;BME280;11972;48.078;11.876;2022-08-21T02:22:36;95430.53;;;14.67;100.00
23589;BME280;11972;48.078;11.876;2022-08-21T02:26:36;95428.50;;;14.62;100.00
23589;BME280;11972;48.078;11.876;2022-08-21T02:30:41;95424.88;;;14.50;100.00
23589;BME280;11972;48.078;11.876;2022-08-21T02:34:42;95426.50;;;14.37;100.00
23589;BME280;11972;48.078;11.876;2022-08-21T02:38:43;95433.88;;;14.22;100.00
23589;BME280;11972;48.078;11.876;2022-08-21T02:42:44;95428.19;;;14.12;100.00
23589;BME280;11972;48.078;11.876;2022-08-21T02:46:44;95432.47;;;14.06;100.00
23589;BME280;11972;48.078;11.876;2022-08-21T02:50:47;95432.06;;;14.03;100.00
23589;BME280;11972;48.078;11.876;2022-08-21T02:54:48;95434.72;;;14.03;100.00
23589;BME280;11972;48.078;11.876;2022-08-21T02:58:50;95428.19;;;13.99;100.00
23589;BME280;11972;48.078;11.876;2022-08-21T03:02:51;95433.91;;;13.96;100.00
23589;BME280;11972;48.078;11.876;2022-08-21T03:06:53;95438.41;;;13.88;100.00
23589;BME280;11972;48.078;11.876;2022-08-21T03:10:54;95432.28;;;13.81;100.00
23589;BME280;11972;48.078;11.876;2022-08-21T03:14:54;95431.66;;;13.73;100.00
23589;BME280;11972;48.078;11.876;2022-08-21T03:18:55;95432.66;;;13.65;100.00
23589;BME280;11972;48.078;11.876;2022-08-21T03:22:55;95430.03;;;13.65;100.00
23589;BME280;11972;48.078;11.876;2022-08-21T03:26:55;95426.56;;;13.58;100.00
23589;BME280;11972;48.078;11.876;2022-08-21T03:30:57;95439.59;;;13.53;100.00
23589;BME280;11972;48.078;11.876;2022-08-21T03:34:57;95437.97;;;13.52;100.00
23589;BME280;11972;48.078;11.876;2022-08-21T03:38:58;95440.03;;;13.50;100.00
23589;BME280;11972;48.078;11.876;2022-08-21T03:42:58;95439.59;;;13.39;100.00
23589;BME280;11972;48.078;11.876;2022-08-21T03:46:59;95444.06;;;13.32;100.00
23589;BME280;11972;48.078;11.876;2022-08-21T03:50:59;95448.13;;;13.28;100.00
23589;BME280;11972;48.078;11.876;2022-08-21T03:54:59;95446.50;;;13.27;100.00
23589;BME280;11972;48.078;11.876;2022-08-21T03:59:00;95443.19;;;13.19;100.00
23589;BME280;11972;48.078;11.876;2022-08-21T04:03:02;95448.06;;;13.15;100.00
23589;BME280;11972;48.078;11.876;2022-08-21T04:07:03;95453.75;;;13.12;100.00
23589;BME280;11972;48.078;11.876;2022-08-21T04:11:04;95448.88;;;13.09;100.00
23589;BME280;11972;48.078;11.876;2022-08-21T04:15:05;95445.81;;;13.12;100.00
23589;BME280;11972;48.078;11.876;2022-08-21T04:19:07;95452.66;;;13.34;100.00
23589;BME280;11972;48.078;11.876;2022-08-21T04:23:07;95457.53;;;13.31;100.00
23589;BME280;11972;48.078;11.876;2022-08-21T04:27:08;95459.53;;;13.22;100.00
23589;BME280;11972;48.078;11.876;2022-08-21T04:31:08;95468.50;;;13.21;100.00
23589;BME280;11972;48.078;11.876;2022-08-21T04:35:10;95474.06;;;13.26;100.00
23589;BME280;11972;48.078;11.876;2022-08-21T04:39:11;95482.41;;;13.23;100.00
23589;BME280;11972;48.078;11.876;2022-08-21T04:43:11;95471.78;;;13.23;100.00
23589;BME280;11972;48.078;11.876;2022-08-21T04:47:12;95477.13;;;13.36;100.00
23589;BME280;11972;48.078;11.876;2022-08-21T04:51:23;95479.19;;;13.48;100.00
23589;BME280;11972;48.078;11.876;2022-08-21T04:55:24;95477.19;;;13.50;100.00
23589;BME280;11972;48.078;11.876;2022-08-21T04:59:31;95480.44;;;13.52;100.00
23589;BME280;11972;48.078;11.876;2022-08-21T05:03:34;95482.06;;;13.53;100.00
23589;BME280;11972;48.078;11.876;2022-08-21T05:07:36;95486.56;;;13.59;100.00
23589;BME280;11972;48.078;11.876;2022-08-21T05:11:36;95492.50;;;13.68;100.00
23589;BME280;11972;48.078;11.876;2022-08-21T05:15:37;95489.25;;;13.79;100.00
23589;BME280;11972;48.078;11.876;2022-08-21T05:19:37;95485.78;;;13.98;100.00
23589;BME280;11972;48.078;11.876;2022-08-21T05:23:38;95480.69;;;14.10;100.00
23589;BME280;11972;48.078;11.876;2022-08-21T05:27:38;95488.63;;;14.23;100.00
23589;BME280;11972;48.078;11.876;2022-08-21T05:31:38;95488.66;;;14.36;100.00
23589;BME280;11972;48.078;11.876;2022-08-21T05:35:39;95491.69;;;14.47;100.00
23589;BME280;11972;48.078;11.876;2022-08-21T05:39:40;95499.66;;;14.60;100.00
23589;BME280;11972;48.078;11.876;2022-08-21T05:43:40;95499.66;;;14.73;100.00
23589;BME280;11972;48.078;11.876;2022-08-21T05:47:40;95504.91;;;14.86;100.00
23589;BME280;11972;48.078;11.876;2022-08-21T05:51:41;95502.44;;;14.92;100.00
23589;BME280;11972;48.078;11.876;2022-08-21T05:55:42;95509.16;;;15.01;100.00
23589;BME280;11972;48.078;11.876;2022-08-21T05:59:42;95507.28;;;15.14;100.00
23589;BME280;11972;48.078;11.876;2022-08-21T06:03:43;95498.44;;;15.27;100.00
23589;BME280;11972;48.078;11.876;2022-08-21T06:07:43;95499.00;;;15.36;100.00
23589;BME280;11972;48.078;11.876;2022-08-21T06:11:44;95500.78;;;15.42;100.00
23589;BME280;11972;48.078;11.876;2022-08-21T06:15:45;95501.19;;;15.46;100.00
23589;BME280;11972;48.078;11.876;2022-08-21T06:19:53;95505.84;;;15.57;100.00
23589;BME280;11972;48.078;11.876;2022-08-21T06:23:54;95502.75;;;15.60;100.00
23589;BME280;11972;48.078;11.876;2022-08-21T06:28:01;95505.63;;;15.58;100.00
23589;BME280;11972;48.078;11.876;2022-08-21T06:32:02;95506.59;;;15.71;100.00
23589;BME280;11972;48.078;11.876;2022-08-21T06:36:02;95499.53;;;15.90;100.00
23589;BME280;11972;48.078;11.876;2022-08-21T06:40:04;95498.84;;;16.01;100.00
23589;BME280;11972;48.078;11.876;2022-08-21T06:44:06;95492.69;;;16.25;100.00
23589;BME280;11972;48.078;11.876;2022-08-21T06:48:06;95497.00;;;16.26;100.00
23589;BME280;11972;48.078;11.876;2022-08-21T06:52:11;95496.84;;;16.21;100.00
23589;BME280;11972;48.078;11.876;2022-08-21T06:56:12;95484.97;;;16.17;100.00
23589;BME280;11972;48.078;11.876;2022-08-21T07:00:13;95490.13;;;16.37;100.00
23589;BME280;11972;48.078;11.876;2022-08-21T07:04:13;95493.66;;;16.31;100.00
23589;BME280;11972;48.078;11.876;2022-08-21T07:08:14;95497.16;;;16.31;100.00
23589;BME280;11972;48.078;11.876;2022-08-21T07:12:14;95483.31;;;16.41;100.00
23589;BME280;11972;48.078;11.876;2022-08-21T07:16:15;95482.16;;;16.55;100.00
23589;BME280;11972;48.078;11.876;2022-08-21T07:20:15;95484.47;;;16.70;100.00
23589;BME280;11972;48.078;11.876;2022-08-21T07:24:15;95488.53;;;16.79;100.00
23589;BME280;11972;48.078;11.876;2022-08-21T07:28:16;95479.63;;;17.04;100.00
23589;BME280;11972;48.078;11.876;2022-08-21T07:32:16;95484.13;;;17.22;100.00
23589;BME280;11972;48.078;11.876;2022-08-21T07:36:16;95486.44;;;17.48;100.00
23589;BME280;11972;48.078;11.876;2022-08-21T07:40:18;95483.13;;;17.65;100.00
23589;BME280;11972;48.078;11.876;2022-08-21T07:44:18;95481.38;;;17.89;100.00
23589;BME280;11972;48.078;11.876;2022-08-21T07:48:18;95477.81;;;18.18;100.00
23589;BME280;11972;48.078;11.876;2022-08-21T07:52:19;95475.28;;;18.47;100.00
23589;BME280;11972;48.078;11.876;2022-08-21T07:56:20;95468.44;;;18.74;100.00
23589;BME280;11972;48.078;11.876;2022-08-21T08:00:23;95463.88;;;18.98;100.00
23589;BME280;11972;48.078;11.876;2022-08-21T08:04:24;95456.38;;;19.12;100.00
23589;BME280;11972;48.078;11.876;2022-08-21T08:08:25;95461.59;;;19.30;100.00
23589;BME280;11972;48.078;11.876;2022-08-21T08:12:25;95462.25;;;19.38;100.00
23589;BME280;11972;48.078;11.876;2022-08-21T08:16:29;95467.34;;;19.51;100.00
23589;BME280;11972;48.078;11.876;2022-08-21T08:20:29;95453.91;;;19.63;100.00
23589;BME280;11972;48.078;11.876;2022-08-21T08:24:30;95461.06;;;19.74;100.00
23589;BME280;11972;48.078;11.876;2022-08-21T08:28:31;95453.28;;;19.72;100.00
23589;BME280;11972;48.078;11.876;2022-08-21T08:32:32;95448.94;;;20.00;100.00
23589;BME280;11972;48.078;11.876;2022-08-21T08:36:36;95448.22;;;20.21;100.00
23589;BME280;11972;48.078;11.876;2022-08-21T08:40:52;95440.31;;;20.31;100.00
23589;BME280;11972;48.078;11.876;2022-08-21T08:45:00;95452.50;;;20.39;100.00
23589;BME280;11972;48.078;11.876;2022-08-21T08:49:38;95460.00;;;20.54;100.00
23589;BME280;11972;48.078;11.876;2022-08-21T08:53:51;95449.34;;;20.59;100.00
23589;BME280;11972;48.078;11.876;2022-08-21T08:57:53;95451.53;;;20.62;100.00
23589;BME280;11972;48.078;11.876;2022-08-21T09:01:54;95456.09;;;20.62;100.00
23589;BME280;11972;48.078;11.876;2022-08-21T09:06:06;95449.88;;;20.78;100.00
23589;BME280;11972;48.078;11.876;2022-08-21T09:10:16;95455.19;;;20.95;100.00
23589;BME280;11972;48.078;11.876;2022-08-21T09:18:51;95455.19;;;20.95;100.00
23589;BME280;11972;48.078;11.876;2022-08-21T09:27:13;95453.09;;;21.41;100.00
23589;BME280;11972;48.078;11.876;2022-08-21T09:31:35;95455.22;;;21.66;100.00
23589;BME280;11972;48.078;11.876;2022-08-21T09:35:50;95452.06;;;22.01;100.00
23589;BME280;11972;48.078;11.876;2022-08-21T09:39:50;95446.50;;;22.40;100.00
23589;BME280;11972;48.078;11.876;2022-08-21T09:43:54;95443.44;;;22.63;100.00
23589;BME280;11972;48.078;11.876;2022-08-21T09:47:54;95449.44;;;22.38;100.00
23589;BME280;11972;48.078;11.876;2022-08-21T09:51:55;95435.13;;;22.33;100.00
23589;BME280;11972;48.078;11.876;2022-08-21T09:56:02;95445.38;;;22.36;100.00
23589;BME280;11972;48.078;11.876;2022-08-21T10:04:34;95423.69;;;22.47;100.00
23589;BME280;11972;48.078;11.876;2022-08-21T10:08:36;95431.84;;;23.05;100.00
23589;BME280;11972;48.078;11.876;2022-08-21T10:13:45;95426.59;;;23.51;100.00
23589;BME280;11972;48.078;11.876;2022-08-21T10:26:45;95428.34;;;23.05;100.00
23589;BME280;11972;48.078;11.876;2022-08-21T10:30:58;95425.88;;;22.98;100.00
23589;BME280;11972;48.078;11.876;2022-08-21T10:43:54;95421.81;;;22.95;100.00
23589;BME280;11972;48.078;11.876;2022-08-21T10:48:05;95418.34;;;22.58;100.00
23589;BME280;11972;48.078;11.876;2022-08-21T10:56:34;95406.88;;;22.77;100.00
23589;BME280;11972;48.078;11.876;2022-08-21T11:00:44;95410.38;;;23.31;100.00
23589;BME280;11972;48.078;11.876;2022-08-21T11:04:54;95394.88;;;23.99;100.00
23589;BME280;11972;48.078;11.876;2022-08-21T11:09:12;95389.38;;;24.81;100.00
23589;BME280;11972;48.078;11.876;2022-08-21T11:13:18;95402.22;;;25.19;100.00
23589;BME280;11972;48.078;11.876;2022-08-21T11:17:27;95389.34;;;24.91;100.00
23589;BME280;11972;48.078;11.876;2022-08-21T11:21:54;95391.84;;;24.62;100.00
23589;BME280;11972;48.078;11.876;2022-08-21T11:26:02;95392.97;;;24.15;100.00
23589;BME280;11972;48.078;11.876;2022-08-21T11:30:03;95387.84;;;23.72;100.00
23589;BME280;11972;48.078;11.876;2022-08-21T11:38:28;95386.06;;;23.20;100.00
23589;BME280;11972;48.078;11.876;2022-08-21T11:47:05;95364.06;;;24.31;100.00
23589;BME280;11972;48.078;11.876;2022-08-21T11:51:21;95356.47;;;24.63;100.00
23589;BME280;11972;48.078;11.876;2022-08-21T11:55:26;95371.09;;;24.57;100.00
23589;BME280;11972;48.078;11.876;2022-08-21T11:59:43;95363.91;;;24.97;100.00
23589;BME280;11972;48.078;11.876;2022-08-21T12:04:00;95355.72;;;25.22;100.00
23589;BME280;11972;48.078;11.876;2022-08-21T12:08:15;95361.19;;;25.07;100.00
23589;BME280;11972;48.078;11.876;2022-08-21T12:12:35;95356.22;;;25.30;100.00
23589;BME280;11972;48.078;11.876;2022-08-21T12:16:45;95348.06;;;25.79;100.00
23589;BME280;11972;48.078;11.876;2022-08-21T12:21:20;95348.19;;;25.59;100.00
23589;BME280;11972;48.078;11.876;2022-08-21T12:25:22;95350.91;;;25.04;100.00
23589;BME280;11972;48.078;11.876;2022-08-21T12:29:26;95352.53;;;25.05;100.00
23589;BME280;11972;48.078;11.876;2022-08-21T12:33:37;95345.41;;;24.60;100.00
23589;BME280;11972;48.078;11.876;2022-08-21T12:37:45;95346.00;;;24.36;100.00
23589;BME280;11972;48.078;11.876;2022-08-21T12:41:55;95346.31;;;24.09;100.00
23589;BME280;11972;48.078;11.876;2022-08-21T12:45:56;95334.97;;;23.82;100.00
23589;BME280;11972;48.078;11.876;2022-08-21T12:54:43;95327.63;;;23.31;100.00
23589;BME280;11972;48.078;11.876;2022-08-21T12:58:53;95328.81;;;22.88;100.00
23589;BME280;11972;48.078;11.876;2022-08-21T13:02:55;95321.81;;;22.82;100.00
23589;BME280;11972;48.078;11.876;2022-08-21T13:06:58;95329.38;;;22.85;100.00
23589;BME280;11972;48.078;11.876;2022-08-21T13:11:02;95329.38;;;22.90;100.00
23589;BME280;11972;48.078;11.876;2022-08-21T13:15:05;95318.66;;;23.00;100.00
23589;BME280;11972;48.078;11.876;2022-08-21T13:19:07;95304.72;;;23.18;100.00
23589;BME280;11972;48.078;11.876;2022-08-21T13:23:25;95301.81;;;23.81;100.00
23589;BME280;11972;48.078;11.876;2022-08-21T13:27:29;95312.78;;;24.51;100.00
23589;BME280;11972;48.078;11.876;2022-08-21T13:31:30;95295.69;;;24.71;100.00
23589;BME280;11972;48.078;11.876;2022-08-21T13:39:50;95294.91;;;25.59;100.00
23589;BME280;11972;48.078;11.876;2022-08-21T13:43:58;95292.53;;;25.53;100.00
23589;BME280;11972;48.078;11.876;2022-08-21T13:48:02;95290.09;;;25.56;100.00
23589;BME280;11972;48.078;11.876;2022-08-21T13:52:04;95286.47;;;25.32;100.00
23589;BME280;11972;48.078;11.876;2022-08-21T13:56:06;95282.38;;;25.73;100.00
23589;BME280;11972;48.078;11.876;2022-08-21T14:00:26;95293.31;;;25.14;100.00
23589;BME280;11972;48.078;11.876;2022-08-21T14:04:38;95289.28;;;24.57;100.00
23589;BME280;11972;48.078;11.876;2022-08-21T14:08:39;95286.72;;;24.86;100.00
23589;BME280;11972;48.078;11.876;2022-08-21T14:12:45;95289.38;;;25.40;100.00
23589;BME280;11972;48.078;11.876;2022-08-21T14:17:00;95275.34;;;25.72;100.00
23589;BME280;11972;48.078;11.876;2022-08-21T14:21:08;95279.47;;;25.99;100.00
23589;BME280;11972;48.078;11.876;2022-08-21T14:29:21;95270.31;;;26.48;100.00
23589;BME280;11972;48.078;11.876;2022-08-21T14:33:31;95270.81;;;26.26;100.00
23589;BME280;11972;48.078;11.876;2022-08-21T14:37:32;95269.94;;;25.72;100.00
23589;BME280;11972;48.078;11.876;2022-08-21T14:41:33;95277.81;;;25.69;100.00
23589;BME280;11972;48.078;11.876;2022-08-21T14:45:34;95291.94;;;25.21;100.00
23589;BME280;11972;48.078;11.876;2022-08-21T14:49:34;95280.88;;;24.63;100.00
23589;BME280;11972;48.078;11.876;2022-08-21T14:53:34;95275.44;;;24.68;100.00
23589;BME280;11972;48.078;11.876;2022-08-21T14:57:35;95276.53;;;24.67;100.00
23589;BME280;11972;48.078;11.876;2022-08-21T15:01:37;95268.06;;;25.34;100.00
23589;BME280;11972;48.078;11.876;2022-08-21T15:05:38;95276.47;;;25.32;100.00
23589;BME280;11972;48.078;11.876;2022-08-21T15:09:38;95277.97;;;25.09;100.00
23589;BME280;11972;48.078;11.876;2022-08-21T15:13:38;95264.44;;;25.04;100.00
23589;BME280;11972;48.078;11.876;2022-08-21T15:17:39;95260.78;;;24.90;100.00
23589;BME280;11972;48.078;11.876;2022-08-21T15:21:39;95263.41;;;25.44;100.00
23589;BME280;11972;48.078;11.876;2022-08-21T15:25:42;95258.56;;;26.29;100.00
23589;BME280;11972;48.078;11.876;2022-08-21T15:29:43;95254.06;;;26.48;100.00
23589;BME280;11972;48.078;11.876;2022-08-21T15:33:44;95259.50;;;26.43;100.00
23589;BME280;11972;48.078;11.876;2022-08-21T15:37:44;95250.00;;;26.69;100.00
23589;BME280;11972;48.078;11.876;2022-08-21T15:41:45;95251.41;;;26.86;100.00
23589;BME280;11972;48.078;11.876;2022-08-21T15:45:46;95249.28;;;26.83;100.00
23589;BME280;11972;48.078;11.876;2022-08-21T15:49:46;95244.31;;;27.09;100.00
23589;BME280;11972;48.078;11.876;2022-08-21T15:53:46;95246.50;;;27.12;100.00
23589;BME280;11972;48.078;11.876;2022-08-21T15:57:51;95250.84;;;26.89;99.72
23589;BME280;11972;48.078;11.876;2022-08-21T16:01:52;95248.94;;;26.89;98.63
23589;BME280;11972;48.078;11.876;2022-08-21T16:05:52;95239.19;;;27.45;100.00
23589;BME280;11972;48.078;11.876;2022-08-21T16:09:55;95243.44;;;27.51;100.00
23589;BME280;11972;48.078;11.876;2022-08-21T16:13:56;95230.94;;;27.36;100.00
23589;BME280;11972;48.078;11.876;2022-08-21T16:17:56;95238.31;;;26.26;100.00
23589;BME280;11972;48.078;11.876;2022-08-21T16:21:57;95241.69;;;25.20;100.00
23589;BME280;11972;48.078;11.876;2022-08-21T16:25:58;95239.13;;;24.95;100.00
23589;BME280;11972;48.078;11.876;2022-08-21T16:29:59;95235.63;;;25.68;100.00
23589;BME280;11972;48.078;11.876;2022-08-21T16:34:00;95233.50;;;25.94;100.00
23589;BME280;11972;48.078;11.876;2022-08-21T16:38:01;95235.47;;;26.12;100.00
23589;BME280;11972;48.078;11.876;2022-08-21T16:42:02;95237.75;;;26.53;100.00
23589;BME280;11972;48.078;11.876;2022-08-21T16:46:02;95226.16;;;26.71;100.00
23589;BME280;11972;48.078;11.876;2022-08-21T16:50:03;95221.31;;;27.06;100.00
23589;BME280;11972;48.078;11.876;2022-08-21T16:54:05;95219.78;;;27.19;100.00
23589;BME280;11972;48.078;11.876;2022-08-21T16:58:32;95224.69;;;26.98;99.81
23589;BME280;11972;48.078;11.876;2022-08-21T17:02:38;95221.53;;;26.72;100.00
23589;BME280;11972;48.078;11.876;2022-08-21T17:06:39;95223.94;;;26.73;100.00
23589;BME280;11972;48.078;11.876;2022-08-21T17:10:44;95225.75;;;26.35;100.00
23589;BME280;11972;48.078;11.876;2022-08-21T17:14:47;95229.50;;;26.15;100.00
23589;BME280;11972;48.078;11.876;2022-08-21T17:18:47;95233.19;;;26.01;100.00
23589;BME280;11972;48.078;11.876;2022-08-21T17:22:48;95226.63;;;25.78;100.00
23589;BME280;11972;48.078;11.876;2022-08-21T17:26:48;95236.56;;;25.53;100.00
23589;BME280;11972;48.078;11.876;2022-08-21T17:30:51;95231.53;;;25.41;100.00
23589;BME280;11972;48.078;11.876;2022-08-21T17:34:53;95229.63;;;25.42;100.00
23589;BME280;11972;48.078;11.876;2022-08-21T17:38:55;95228.00;;;25.41;100.00
23589;BME280;11972;48.078;11.876;2022-08-21T17:42:56;95232.47;;;25.27;100.00
23589;BME280;11972;48.078;11.876;2022-08-21T17:46:57;95233.72;;;24.95;100.00
23589;BME280;11972;48.078;11.876;2022-08-21T17:50:57;95228.13;;;24.81;100.00
23589;BME280;11972;48.078;11.876;2022-08-21T17:54:57;95227.47;;;24.50;100.00
23589;BME280;11972;48.078;11.876;2022-08-21T17:58:58;95232.19;;;24.09;100.00
23589;BME280;11972;48.078;11.876;2022-08-21T18:03:20;95241.41;;;23.06;100.00
23589;BME280;11972;48.078;11.876;2022-08-21T18:07:21;95232.94;;;22.09;100.00
23589;BME280;11972;48.078;11.876;2022-08-21T18:11:23;95238.66;;;21.38;100.00
23589;BME280;11972;48.078;11.876;2022-08-21T18:15:24;95246.72;;;20.78;100.00
23589;BME280;11972;48.078;11.876;2022-08-21T18:19:25;95247.16;;;20.26;100.00
23589;BME280;11972;48.078;11.876;2022-08-21T18:23:26;95256.44;;;19.80;100.00
23589;BME280;11972;48.078;11.876;2022-08-21T18:27:26;95255.81;;;19.39;100.00
23589;BME280;11972;48.078;11.876;2022-08-21T18:31:28;95262.09;;;18.99;100.00
23589;BME280;11972;48.078;11.876;2022-08-21T18:35:29;95268.16;;;18.66;100.00
23589;BME280;11972;48.078;11.876;2022-08-21T18:39:30;95269.41;;;18.35;100.00
23589;BME280;11972;48.078;11.876;2022-08-21T18:43:31;95263.19;;;18.06;100.00
23589;BME280;11972;48.078;11.876;2022-08-21T18:47:35;95269.84;;;17.80;100.00
23589;BME280;11972;48.078;11.876;2022-08-21T18:51:38;95279.13;;;17.54;100.00
23589;BME280;11972;48.078;11.876;2022-08-21T18:55:41;95271.09;;;17.30;100.00
23589;BME280;11972;48.078;11.876;2022-08-21T18:59:42;95271.03;;;17.07;100.00
23589;BME280;11972;48.078;11.876;2022-08-21T19:03:42;95275.50;;;16.83;100.00
23589;BME280;11972;48.078;11.876;2022-08-21T19:07:43;95278.41;;;16.63;100.00
23589;BME280;11972;48.078;11.876;2022-08-21T19:11:43;95274.72;;;16.46;100.00
23589;BME280;11972;48.078;11.876;2022-08-21T19:15:45;95272.47;;;16.31;100.00
23589;BME280;11972;48.078;11.876;2022-08-21T19:19:49;95281.44;;;16.18;100.00
23589;BME280;11972;48.078;11.876;2022-08-21T19:23:49;95281.78;;;16.03;100.00
23589;BME280;11972;48.078;11.876;2022-08-21T19:27:50;95277.84;;;15.87;100.00
23589;BME280;11972;48.078;11.876;2022-08-21T19:31:50;95291.53;;;15.73;100.00
23589;BME280;11972;48.078;11.876;2022-08-21T19:35:52;95283.84;;;15.58;100.00
23589;BME280;11972;48.078;11.876;2022-08-21T19:39:52;95284.78;;;15.45;100.00
23589;BME280;11972;48.078;11.876;2022-08-21T19:43:56;95284.91;;;15.32;100.00
23589;BME280;11972;48.078;11.876;2022-08-21T19:47:57;95286.81;;;15.25;100.00
23589;BME280;11972;48.078;11.876;2022-08-21T19:51:57;95283.38;;;15.18;100.00
23589;BME280;11972;48.078;11.876;2022-08-21T19:55:57;95287.50;;;15.13;100.00
23589;BME280;11972;48.078;11.876;2022-08-21T19:59:58;95279.41;;;15.02;100.00
23589;BME280;11972;48.078;11.876;2022-08-21T20:03:58;95276.41;;;14.92;100.00
23589;BME280;11972;48.078;11.876;2022-08-21T20:07:58;95272.16;;;14.84;100.00
23589;BME280;11972;48.078;11.876;2022-08-21T20:12:03;95273.41;;;14.81;100.00
23589;BME280;11972;48.078;11.876;2022-08-21T20:16:06;95271.59;;;14.75;100.00
23589;BME280;11972;48.078;11.876;2022-08-21T20:20:08;95275.13;;;14.69;100.00
23589;BME280;11972;48.078;11.876;2022-08-21T20:24:09;95280.88;;;14.59;100.00
23589;BME280;11972;48.078;11.876;2022-08-21T20:28:10;95262.53;;;14.51;100.00
23589;BME280;11972;48.078;11.876;2022-08-21T20:32:10;95266.22;;;14.44;100.00
23589;BME280;11972;48.078;11.876;2022-08-21T20:36:10;95263.81;;;14.35;100.00
23589;BME280;11972;48.078;11.876;2022-08-21T20:40:12;95266.09;;;14.32;100.00
23589;BME280;11972;48.078;11.876;2022-08-21T20:44:14;95271.22;;;14.27;100.00
23589;BME280;11972;48.078;11.876;2022-08-21T20:48:21;95271.25;;;14.20;100.00
23589;BME280;11972;48.078;11.876;2022-08-21T20:52:24;95277.38;;;14.14;100.00
23589;BME280;11972;48.078;11.876;2022-08-21T20:56:39;95276.19;;;14.10;100.00
23589;BME280;11972;48.078;11.876;2022-08-21T21:00:43;95275.78;;;14.06;100.00
23589;BME280;11972;48.078;11.876;2022-08-21T21:04:54;95267.22;;;14.04;100.00
23589;BME280;11972;48.078;11.876;2022-08-21T21:09:28;95267.22;;;13.98;100.00
23589;BME280;11972;48.078;11.876;2022-08-21T21:13:44;95271.75;;;13.90;100.00
23589;BME280;11972;48.078;11.876;2022-08-21T21:18:05;95262.38;;;13.81;100.00
23589;BME280;11972;48.078;11.876;2022-08-21T21:22:10;95265.66;;;13.77;100.00
23589;BME280;11972;48.078;11.876;2022-08-21T21:30:27;95273.66;;;13.70;100.00
23589;BME280;11972;48.078;11.876;2022-08-21T21:34:35;95273.44;;;13.65;100.00
23589;BME280;11972;48.078;11.876;2022-08-21T21:47:58;95266.09;;;13.60;100.00
23589;BME280;11972;48.078;11.876;2022-08-21T22:00:15;95267.34;;;13.45;100.00
23589;BME280;11972;48.078;11.876;2022-08-21T22:04:54;95266.56;;;13.37;100.00
23589;BME280;11972;48.078;11.876;2022-08-21T22:09:07;95269.63;;;13.34;100.00
23589;BME280;11972;48.078;11.876;2022-08-21T22:13:24;95268.19;;;13.32;100.00
23589;BME280;11972;48.078;11.876;2022-08-21T22:17:45;95268.78;;;13.27;100.00